Time;durP1;ratioP1;P1;durP2;ratioP2;P2;SDS_P1;SDS_P2;PMS_P1;PMS_P2;Temp;Humidity;BMP_temperature;BMP_pressure;BME280_temperature;BME280_humidity;BME280_pressure;Samples;Min_cycle;Max_cycle;Signal;HPM_P1;HPM_P2
2021/04/06 00:03:19;;;;;;;0.82;0.82;;;7.90;98.70;;;;;;5061050;28;20036;-96
2021/04/06 00:09:12;;;;;;;0.70;0.65;;;7.70;99.20;;;;;;5045694;28;20056;-96
2021/04/06 00:11:41;;;;;;;0.17;0.17;;;7.70;99.80;;;;;;5056629;28;20032;-96
2021/04/06 00:14:08;;;;;;;1.40;1.25;;;7.80;99.90;;;;;;5053275;28;20132;-96
2021/04/06 00:16:35;;;;;;;12.93;1.67;;;7.80;99.30;;;;;;5053072;28;20032;-96
2021/04/06 00:22:26;;;;;;;0.22;0.22;;;7.90;99.80;;;;;;5053748;28;20081;-95
2021/04/06 00:24:53;;;;;;;0.45;0.45;;;7.90;99.90;;;;;;5052940;28;20545;-95
2021/04/06 00:27:19;;;;;;;;;;;7.80;99.90;;;;;;5052543;28;20021;-95
2021/04/06 00:29:55;;;;;;;0.10;0.10;;;7.80;99.90;;;;;;5052705;28;19955;-95
2021/04/06 00:32:25;;;;;;;0.20;0.20;;;7.80;99.90;;;;;;5055596;28;20079;-95
2021/04/06 00:35:05;;;;;;;0.50;0.50;;;7.80;99.90;;;;;;5066511;28;20067;-96
2021/04/06 00:37:33;;;;;;;0.30;0.28;;;7.80;99.90;;;;;;5052422;28;20392;-95
2021/04/06 00:40:10;;;;;;;0.30;0.30;;;7.80;99.90;;;;;;5055819;28;20496;-96
2021/04/06 00:42:36;;;;;;;;;;;7.70;99.90;;;;;;5075675;28;20016;-96
2021/04/06 00:45:18;;;;;;;4.10;1.48;;;7.70;99.90;;;;;;5060811;28;20360;-95
2021/04/06 00:47:45;;;;;;;0.75;0.75;;;7.80;99.90;;;;;;5055495;28;20058;-95
2021/04/06 00:53:56;;;;;;;0.52;0.52;;;8.00;99.90;;;;;;5056783;28;20028;-96
2021/04/06 00:56:27;;;;;;;1.88;1.45;;;7.90;99.90;;;;;;5055574;28;20021;-95
2021/04/06 00:58:54;;;;;;;0.70;0.70;;;7.80;99.90;;;;;;5058778;28;20062;-94
2021/04/06 01:01:34;;;;;;;0.80;0.75;;;7.90;99.90;;;;;;5064272;28;20021;-94
2021/04/06 01:04:14;;;;;;;0.30;0.30;;;7.80;99.90;;;;;;5061995;28;20029;-95
2021/04/06 01:06:54;;;;;;;3.60;1.27;;;7.90;99.90;;;;;;5063958;28;20106;-96
2021/04/06 01:09:53;;;;;;;0.50;0.50;;;7.90;99.90;;;;;;5073178;28;20045;-94
2021/04/06 01:12:25;;;;;;;0.13;0.13;;;7.90;99.90;;;;;;4998400;28;20048;-94
2021/04/06 01:14:52;;;;;;;0.40;0.40;;;8.00;99.90;;;;;;4998285;28;20445;-94
2021/04/06 01:17:23;;;;;;;0.20;0.20;;;7.90;99.90;;;;;;4998340;28;20401;-93
2021/04/06 01:19:49;;;;;;;1.30;0.85;;;7.90;99.90;;;;;;4997819;28;20030;-94
2021/04/06 01:22:17;;;;;;;0.32;0.32;;;7.90;99.90;;;;;;4998364;28;20040;-96
2021/04/06 01:24:44;;;;;;;0.17;0.17;;;7.90;99.90;;;;;;4998193;28;20101;-95
2021/04/06 01:27:15;;;;;;;0.17;0.17;;;7.90;99.90;;;;;;4998296;28;20367;-94
2021/04/06 01:29:48;;;;;;;0.73;0.32;;;7.80;99.90;;;;;;4999610;28;20049;-95
2021/04/06 01:32:14;;;;;;;0.52;0.52;;;7.80;99.90;;;;;;4999507;28;20439;-95
2021/04/06 01:34:41;;;;;;;1.02;1.02;;;7.80;99.90;;;;;;4998284;28;20022;-94
2021/04/06 01:37:07;;;;;;;1.02;0.98;;;7.80;99.90;;;;;;4997743;28;20382;-95
2021/04/06 01:39:34;;;;;;;0.17;0.17;;;7.80;99.90;;;;;;4998235;28;20029;-94
2021/04/06 01:42:03;;;;;;;;;;;7.70;99.90;;;;;;4998404;28;20026;-96
2021/04/06 01:44:31;;;;;;;1.52;1.15;;;7.70;99.90;;;;;;4997775;28;20427;-96
2021/04/06 01:46:57;;;;;;;1.92;0.82;;;7.50;99.90;;;;;;4998921;28;20032;-96
2021/04/06 01:49:25;;;;;;;0.10;0.10;;;7.50;99.90;;;;;;5045517;28;20487;-96
2021/04/06 01:52:17;;;;;;;0.10;0.10;;;7.50;99.90;;;;;;5067935;28;20021;-96
2021/04/06 02:04:57;;;;;;;0.10;0.10;;;7.30;99.90;;;;;;5061593;28;20040;-95
2021/04/06 02:07:30;;;;;;;0.20;0.20;;;7.20;99.90;;;;;;5054891;28;20021;-95
2021/04/06 02:09:57;;;;;;;0.10;0.10;;;7.10;99.90;;;;;;5053986;28;20041;-95
2021/04/06 02:12:25;;;;;;;;;;;7.00;99.90;;;;;;5058863;28;20025;-95
2021/04/06 02:15:04;;;;;;;0.17;0.17;;;7.00;99.90;;;;;;5073168;28;19995;-95
2021/04/06 02:17:51;;;;;;;1.17;0.80;;;6.90;99.90;;;;;;5074525;28;20017;-96
2021/04/06 02:20:21;;;;;;;0.28;0.28;;;6.80;99.90;;;;;;5056700;28;20112;-95
2021/04/06 02:23:00;;;;;;;0.30;0.30;;;6.80;99.90;;;;;;5054157;28;20029;-94
2021/04/06 02:25:27;;;;;;;0.10;0.10;;;6.50;99.90;;;;;;5047783;28;20590;-95
2021/04/06 02:27:54;;;;;;;0.10;0.10;;;6.30;99.90;;;;;;5054510;28;20036;-96
2021/04/06 02:33:45;;;;;;;0.10;0.10;;;6.20;99.90;;;;;;5054539;28;20028;-95
2021/04/06 02:36:11;;;;;;;0.10;0.10;;;6.10;99.90;;;;;;5057793;28;20025;-95
2021/04/06 02:38:44;;;;;;;0.10;0.10;;;6.00;99.90;;;;;;5054487;28;20099;-95
2021/04/06 02:41:18;;;;;;;0.10;0.10;;;6.00;99.90;;;;;;5054218;28;20037;-96
2021/04/06 02:43:53;;;;;;;0.30;0.22;;;6.00;99.90;;;;;;5054649;28;20036;-95
2021/04/06 02:46:27;;;;;;;0.10;0.10;;;6.00;99.90;;;;;;5057334;28;20079;-95
2021/04/06 02:49:00;;;;;;;0.10;0.10;;;6.00;99.90;;;;;;5055670;28;20052;-96
2021/04/06 02:51:27;;;;;;;0.10;0.10;;;5.90;99.90;;;;;;5055267;28;20025;-96
2021/04/06 02:53:54;;;;;;;0.10;0.10;;;5.80;99.90;;;;;;5054300;28;20021;-95
2021/04/06 02:56:37;;;;;;;0.10;0.10;;;5.80;99.90;;;;;;5054059;28;20120;-95
2021/04/06 02:59:20;;;;;;;0.10;0.10;;;5.70;99.90;;;;;;5053630;28;20024;-94
2021/04/06 03:01:49;;;;;;;0.30;0.30;;;5.80;99.90;;;;;;5053391;28;20037;-95
2021/04/06 03:04:39;;;;;;;0.20;0.20;;;5.70;99.90;;;;;;5053254;28;20024;-95
2021/04/06 03:07:24;;;;;;;0.30;0.30;;;5.70;99.90;;;;;;5054505;28;20029;-95
2021/04/06 03:09:51;;;;;;;0.40;0.40;;;5.60;99.90;;;;;;5052950;28;20045;-96
2021/04/06 03:12:17;;;;;;;0.13;0.13;;;5.50;99.90;;;;;;5053459;28;20025;-95
2021/04/06 03:14:46;;;;;;;0.27;0.27;;;5.60;99.90;;;;;;5052950;28;20033;-93
2021/04/06 03:17:13;;;;;;;0.10;0.10;;;5.60;99.90;;;;;;5052907;28;20033;-94
2021/04/06 03:19:38;;;;;;;0.10;0.10;;;5.50;99.90;;;;;;5052854;28;20032;-95
2021/04/06 03:22:06;;;;;;;0.10;0.10;;;5.60;99.90;;;;;;5052985;28;20032;-95
2021/04/06 03:24:33;;;;;;;0.25;0.25;;;5.50;99.90;;;;;;5053853;28;20063;-95
2021/04/06 03:27:03;;;;;;;0.10;0.10;;;5.50;99.90;;;;;;5060058;28;20025;-96
2021/04/06 03:29:32;;;;;;;0.52;0.52;;;5.50;99.90;;;;;;5063656;28;20029;-96
2021/04/06 03:32:09;;;;;;;0.25;0.25;;;5.50;99.90;;;;;;5065792;28;20064;-96
2021/04/06 03:34:38;;;;;;;0.10;0.10;;;5.50;99.90;;;;;;5072402;28;20021;-96
2021/04/06 03:48:19;;;;;;;1.27;1.17;;;5.40;99.90;;;;;;4997577;26;20050;-96
2021/04/06 03:50:45;;;;;;;0.17;0.17;;;5.30;99.90;;;;;;4995069;28;20109;-93
2021/04/06 03:53:12;;;;;;;0.10;0.10;;;5.30;99.90;;;;;;4977024;28;20030;-94
2021/04/06 03:55:39;;;;;;;0.10;0.10;;;5.30;99.90;;;;;;4977134;28;20030;-95
2021/04/06 03:58:12;;;;;;;0.10;0.10;;;5.30;99.90;;;;;;4977197;28;20034;-95
2021/04/06 04:00:37;;;;;;;0.50;0.50;;;5.20;99.90;;;;;;4976757;28;20034;-95
2021/04/06 04:03:03;;;;;;;0.17;0.17;;;5.10;99.90;;;;;;4976751;28;20090;-95
2021/04/06 04:05:29;;;;;;;0.80;0.38;;;5.10;99.90;;;;;;4976831;28;20034;-95
2021/04/06 04:07:56;;;;;;;0.10;0.10;;;5.00;99.90;;;;;;4980095;28;20030;-94
2021/04/06 04:11:04;;;;;;;0.10;0.10;;;5.10;99.90;;;;;;4980447;28;20037;-95
2021/04/06 04:13:30;;;;;;;2.10;0.43;;;5.00;99.90;;;;;;4980598;28;20490;-92
2021/04/06 04:19:34;;;;;;;0.10;0.10;;;4.80;99.90;;;;;;4997673;28;20029;-94
2021/04/06 04:22:00;;;;;;;0.10;0.10;;;4.70;99.90;;;;;;4980051;28;20437;-93
2021/04/06 04:24:26;;;;;;;0.28;0.28;;;4.70;99.90;;;;;;4980314;28;20114;-95
2021/04/06 04:26:52;;;;;;;0.10;0.10;;;4.60;99.90;;;;;;4980191;28;20023;-94
2021/04/06 04:29:17;;;;;;;0.17;0.17;;;4.60;99.90;;;;;;4980570;28;20058;-93
2021/04/06 04:31:46;;;;;;;0.10;0.10;;;4.70;99.90;;;;;;4976963;28;20027;-94
2021/04/06 04:34:12;;;;;;;0.10;0.10;;;4.50;99.90;;;;;;4977186;28;20018;-94
2021/04/06 04:36:38;;;;;;;0.10;0.10;;;4.60;99.90;;;;;;4977377;28;20113;-94
2021/04/06 04:39:04;;;;;;;0.10;0.10;;;4.50;99.90;;;;;;4976344;28;20061;-92
2021/04/06 04:41:30;;;;;;;0.10;0.10;;;4.60;99.90;;;;;;4976043;28;20038;-94
2021/04/06 04:43:56;;;;;;;0.10;0.10;;;4.60;99.90;;;;;;4977025;28;20043;-93
2021/04/06 04:46:22;;;;;;;0.10;0.10;;;4.50;99.90;;;;;;4976572;28;20043;-96
2021/04/06 04:48:48;;;;;;;0.20;0.20;;;4.40;99.90;;;;;;4976836;28;20046;-94
2021/04/06 04:51:15;;;;;;;0.80;0.80;;;4.40;99.90;;;;;;4977044;28;20031;-93
2021/04/06 04:53:41;;;;;;;0.10;0.10;;;4.40;99.90;;;;;;4976680;28;20050;-94
2021/04/06 04:56:07;;;;;;;0.45;0.45;;;4.30;99.90;;;;;;4976800;28;20074;-95
2021/04/06 04:58:32;;;;;;;0.10;0.10;;;4.40;99.90;;;;;;4976695;28;20074;-95
2021/04/06 05:00:58;;;;;;;3.83;0.75;;;4.30;99.90;;;;;;4977449;28;20485;-95
2021/04/06 05:03:24;;;;;;;0.10;0.10;;;4.30;99.90;;;;;;4978023;28;20030;-90
2021/04/06 05:05:50;;;;;;;0.45;0.45;;;4.20;99.90;;;;;;4973227;28;20036;-90
2021/04/06 05:08:15;;;;;;;0.10;0.10;;;4.30;99.90;;;;;;4971493;28;20097;-90
2021/04/06 05:10:41;;;;;;;0.10;0.10;;;4.40;99.90;;;;;;4977459;28;20031;-94
2021/04/06 05:13:07;;;;;;;0.20;0.20;;;4.30;99.90;;;;;;4975734;28;20395;-94
2021/04/06 05:15:33;;;;;;;0.20;0.20;;;4.40;99.90;;;;;;4975707;28;20026;-93
2021/04/06 05:17:59;;;;;;;0.13;0.13;;;4.20;99.90;;;;;;4974274;28;20089;-93
2021/04/06 05:20:26;;;;;;;0.10;0.10;;;4.30;99.90;;;;;;4969645;28;20031;-91
2021/04/06 05:22:52;;;;;;;0.10;0.10;;;4.20;99.90;;;;;;4975367;28;20042;-91
2021/04/06 05:25:18;;;;;;;0.10;0.10;;;4.10;99.90;;;;;;4974937;28;20031;-92
2021/04/06 05:27:44;;;;;;;0.10;0.10;;;4.10;99.90;;;;;;4975244;28;20031;-91
2021/04/06 05:30:10;;;;;;;0.20;0.20;;;4.20;99.90;;;;;;4974292;28;20026;-92
2021/04/06 05:32:50;;;;;;;0.40;0.35;;;4.20;99.90;;;;;;4976396;28;20027;-93
2021/04/06 05:35:23;;;;;;;0.10;0.10;;;4.20;99.90;;;;;;4977500;28;20061;-94
2021/04/06 05:37:49;;;;;;;0.10;0.10;;;4.20;99.90;;;;;;4975030;28;20142;-95
2021/04/06 05:40:15;;;;;;;0.45;0.45;;;4.30;99.90;;;;;;4975950;28;20499;-93
2021/04/06 05:42:40;;;;;;;0.32;0.30;;;4.30;99.90;;;;;;4956147;28;20443;-94
2021/04/06 05:45:08;;;;;;;0.52;0.52;;;4.30;99.90;;;;;;4964205;28;20098;-92
2021/04/06 05:47:45;;;;;;;0.10;0.10;;;4.30;99.90;;;;;;4969412;28;20042;-92
2021/04/06 05:50:11;;;;;;;0.40;0.40;;;4.30;99.90;;;;;;4973041;28;20517;-90
2021/04/06 05:52:38;;;;;;;0.10;0.10;;;4.30;99.90;;;;;;4970621;28;20035;-93
2021/04/06 05:55:08;;;;;;;0.10;0.10;;;4.30;99.90;;;;;;4969641;28;20119;-89
2021/04/06 05:57:37;;;;;;;0.20;0.20;;;4.40;99.90;;;;;;4965729;28;20027;-92
2021/04/06 06:00:07;;;;;;;;;;;4.70;99.90;;;;;;4974922;28;20482;-94
2021/04/06 06:02:39;;;;;;;0.32;0.32;;;4.60;99.90;;;;;;4975360;28;19913;-90
2021/04/06 06:05:09;;;;;;;0.10;0.10;;;4.80;99.90;;;;;;4974194;28;20050;-94
2021/04/06 06:07:36;;;;;;;0.15;0.15;;;4.90;99.90;;;;;;4974332;28;20027;-93
2021/04/06 06:10:20;;;;;;;;;;;5.00;99.90;;;;;;4974830;28;20110;-94
2021/04/06 06:12:48;;;;;;;0.20;0.20;;;5.20;99.90;;;;;;4974303;28;19934;-92
2021/04/06 06:15:16;;;;;;;0.55;0.55;;;5.30;99.90;;;;;;4970808;28;20109;-95
2021/04/06 06:18:03;;;;;;;2.10;1.30;;;5.40;99.90;;;;;;4971740;28;20025;-95
2021/04/06 06:20:33;;;;;;;0.20;0.20;;;5.60;99.90;;;;;;4973183;28;20490;-94
2021/04/06 06:26:23;;;;;;;0.17;0.17;;;7.10;97.10;;;;;;4969318;28;20113;-91
2021/04/06 06:29:44;;;;;;;0.10;0.10;;;7.70;96.50;;;;;;4973029;28;20054;-91
2021/04/06 06:32:22;;;;;;;0.40;0.40;;;9.20;95.30;;;;;;4974296;28;20039;-91
2021/04/06 06:34:52;;;;;;;0.03;0.03;;;7.80;94.80;;;;;;4972803;28;20023;-92
2021/04/06 06:37:26;;;;;;;0.50;0.50;;;8.60;96.20;;;;;;4974007;28;20514;-91
2021/04/06 06:39:52;;;;;;;0.93;0.50;;;10.00;93.90;;;;;;4972672;28;20049;-93
2021/04/06 06:42:20;;;;;;;0.00;0.00;;;10.10;93.10;;;;;;4989374;28;20058;-91
2021/04/06 06:44:47;;;;;;;0.70;0.43;;;10.50;93.70;;;;;;4968389;28;20025;-93
2021/04/06 06:47:28;;;;;;;0.15;0.15;;;10.50;93.90;;;;;;4974733;28;20564;-92
2021/04/06 06:50:15;;;;;;;0.00;0.00;;;9.80;95.60;;;;;;4958108;28;20066;-94
2021/04/06 06:52:49;;;;;;;0.05;0.05;;;10.50;93.60;;;;;;4976037;28;20105;-95
2021/04/06 06:55:26;;;;;;;0.10;0.10;;;11.20;92.90;;;;;;4972553;28;20038;-90
2021/04/06 06:58:06;;;;;;;0.40;0.22;;;12.70;90.00;;;;;;4971431;28;20023;-93
2021/04/06 07:00:32;;;;;;;0.00;0.00;;;13.50;86.30;;;;;;4974195;28;20498;-94
2021/04/06 07:02:58;;;;;;;0.10;0.10;;;12.90;90.00;;;;;;4973644;28;20506;-91
2021/04/06 07:05:25;;;;;;;0.05;0.05;;;11.70;91.40;;;;;;4970798;28;20030;-92
2021/04/06 07:08:05;;;;;;;0.00;0.00;;;13.00;89.60;;;;;;4970540;28;20130;-89
2021/04/06 07:11:01;;;;;;;0.10;0.10;;;13.10;89.30;;;;;;4953650;28;20055;-94
2021/04/06 07:13:32;;;;;;;;;;;13.40;85.00;;;;;;4960200;28;20422;-90
2021/04/06 07:16:00;;;;;;;0.00;0.00;;;13.40;87.30;;;;;;4966098;28;20707;-88
2021/04/06 07:18:27;;;;;;;0.10;0.10;;;12.90;88.20;;;;;;4961294;28;20041;-90
2021/04/06 07:21:05;;;;;;;0.00;0.00;;;11.90;90.50;;;;;;4967277;28;20043;-88
2021/04/06 07:23:58;;;;;;;0.17;0.17;;;12.20;90.80;;;;;;4975923;28;20089;-89
2021/04/06 07:26:26;;;;;;;0.32;0.32;;;13.20;86.20;;;;;;4967211;28;20027;-89
2021/04/06 07:28:54;;;;;;;0.10;0.10;;;15.70;77.70;;;;;;4963768;28;20118;-90
2021/04/06 07:31:29;;;;;;;0.15;0.15;;;14.50;80.80;;;;;;4960866;28;20027;-89
2021/04/06 07:33:57;;;;;;;0.10;0.10;;;14.30;82.20;;;;;;4968669;28;20046;-90
2021/04/06 07:36:26;;;;;;;0.15;0.13;;;12.00;89.50;;;;;;4965778;28;20035;-89
2021/04/06 07:38:55;;;;;;;0.10;0.10;;;14.40;80.90;;;;;;4961471;28;20058;-91
2021/04/06 07:41:29;;;;;;;0.00;0.00;;;16.80;71.60;;;;;;4983379;28;20034;-91
2021/04/06 07:43:57;;;;;;;0.32;0.32;;;16.40;72.20;;;;;;4969395;28;20504;-91
2021/04/06 07:46:35;;;;;;;0.35;0.35;;;16.50;75.00;;;;;;4969145;28;20077;-90
2021/04/06 07:49:21;;;;;;;0.10;0.10;;;15.00;81.00;;;;;;4979631;28;20118;-91
2021/04/06 07:51:52;;;;;;;0.73;0.25;;;14.90;81.20;;;;;;4971656;28;20018;-91
2021/04/06 07:54:20;;;;;;;0.00;0.00;;;16.00;75.70;;;;;;4970522;28;20113;-91
2021/04/06 07:56:51;;;;;;;0.20;0.20;;;14.40;80.90;;;;;;4972554;28;20015;-91
2021/04/06 07:59:20;;;;;;;0.10;0.10;;;16.50;73.30;;;;;;4985822;28;20026;-91
2021/04/06 08:01:49;;;;;;;0.00;0.00;;;14.70;78.50;;;;;;4971976;28;20113;-91
2021/04/06 08:04:16;;;;;;;0.60;0.60;;;15.90;74.90;;;;;;4971689;28;20027;-90
2021/04/06 08:06:44;;;;;;;0.10;0.10;;;14.10;81.10;;;;;;4971913;28;20030;-90
2021/04/06 08:09:43;;;;;;;0.00;0.00;;;14.40;78.90;;;;;;4969808;28;20034;-91
2021/04/06 08:12:33;;;;;;;0.25;0.25;;;16.40;71.70;;;;;;4969385;28;20043;-90
2021/04/06 08:15:05;;;;;;;0.10;0.10;;;16.70;72.40;;;;;;4971913;28;20023;-91
2021/04/06 08:17:34;;;;;;;0.28;0.28;;;14.30;78.60;;;;;;4969598;28;20570;-90
2021/04/06 08:20:31;;;;;;;0.20;0.20;;;17.00;69.90;;;;;;4969857;28;20019;-90
2021/04/06 08:23:14;;;;;;;0.17;0.17;;;15.50;77.50;;;;;;4971912;28;20027;-91
2021/04/06 08:25:44;;;;;;;0.10;0.10;;;16.70;72.70;;;;;;4969545;28;20497;-89
2021/04/06 08:28:29;;;;;;;0.10;0.10;;;18.60;66.00;;;;;;4971950;28;20110;-92
2021/04/06 08:31:20;;;;;;;0.10;0.10;;;17.30;71.10;;;;;;4968504;28;20059;-91
2021/04/06 08:33:46;;;;;;;0.65;0.47;;;18.90;62.60;;;;;;4964417;28;20081;-91
2021/04/06 08:36:21;;;;;;;0.10;0.10;;;15.50;72.50;;;;;;4971937;28;20030;-92
2021/04/06 08:38:48;;;;;;;0.10;0.10;;;16.30;69.80;;;;;;4971353;28;20266;-89
2021/04/06 08:41:31;;;;;;;0.10;0.10;;;14.50;77.20;;;;;;4985733;28;20026;-92
2021/04/06 08:44:01;;;;;;;0.10;0.10;;;12.80;77.30;;;;;;4965159;28;20034;-90
2021/04/06 08:46:39;;;;;;;0.10;0.10;;;14.90;76.80;;;;;;4970404;28;20074;-89
2021/04/06 08:49:26;;;;;;;0.08;0.08;;;16.70;68.70;;;;;;4986274;28;20031;-90
2021/04/06 08:51:58;;;;;;;0.17;0.17;;;17.00;66.70;;;;;;4984029;28;20034;-88
2021/04/06 08:54:27;;;;;;;0.15;0.15;;;15.00;74.20;;;;;;4967033;28;20498;-88
2021/04/06 08:57:00;;;;;;;0.10;0.10;;;15.30;72.70;;;;;;4968912;28;20011;-92
2021/04/06 08:59:39;;;;;;;0.95;0.70;;;16.00;72.50;;;;;;4988797;28;20031;-92
2021/04/06 09:02:16;;;;;;;0.00;0.00;;;15.70;71.50;;;;;;4971927;28;20039;-92
2021/04/06 09:04:50;;;;;;;0.22;0.22;;;16.20;71.70;;;;;;4971402;28;20035;-92
2021/04/06 09:07:27;;;;;;;0.30;0.30;;;15.00;74.10;;;;;;4959016;28;20610;-89
2021/04/06 09:10:00;;;;;;;11.05;0.30;;;16.30;71.60;;;;;;4969509;28;20625;-89
2021/04/06 09:12:27;;;;;;;0.47;0.47;;;18.10;60.80;;;;;;4973021;28;20078;-90
2021/04/06 09:14:53;;;;;;;0.10;0.10;;;18.60;63.10;;;;;;4971183;28;20505;-90
2021/04/06 09:17:32;;;;;;;0.00;0.00;;;18.00;62.20;;;;;;4970873;28;20081;-89
2021/04/06 09:20:00;;;;;;;0.00;0.00;;;17.90;64.10;;;;;;4962985;28;20129;-91
2021/04/06 09:22:26;;;;;;;7.43;0.95;;;19.30;56.20;;;;;;4969102;28;20018;-90
2021/04/06 09:24:52;;;;;;;0.10;0.10;;;18.60;58.70;;;;;;4970373;28;20029;-89
2021/04/06 09:27:18;;;;;;;0.30;0.30;;;14.10;60.10;;;;;;4970458;28;20019;-91
2021/04/06 09:29:49;;;;;;;0.00;0.00;;;14.70;73.60;;;;;;4969992;28;20066;-89
2021/04/06 09:32:20;;;;;;;0.10;0.10;;;16.00;71.10;;;;;;4970190;28;20068;-89
2021/04/06 09:34:52;;;;;;;0.00;0.00;;;20.00;53.60;;;;;;4964552;28;20027;-89
2021/04/06 09:37:28;;;;;;;0.47;0.47;;;20.30;53.70;;;;;;4961762;28;20122;-90
2021/04/06 09:39:55;;;;;;;0.00;0.00;;;17.00;65.20;;;;;;4965277;28;20080;-90
2021/04/06 09:42:28;;;;;;;0.57;0.57;;;18.60;55.60;;;;;;4964469;28;20119;-90
2021/04/06 09:44:56;;;;;;;0.10;0.10;;;18.50;60.00;;;;;;4985228;28;20113;-89
2021/04/06 09:47:23;;;;;;;0.00;0.00;;;19.40;51.70;;;;;;4951154;28;20514;-89
2021/04/06 09:49:52;;;;;;;1.42;0.15;;;17.30;58.80;;;;;;4969272;28;20122;-89
2021/04/06 09:52:28;;;;;;;0.00;0.00;;;19.70;49.80;;;;;;4980647;28;20106;-89
2021/04/06 09:55:08;;;;;;;0.10;0.10;;;20.10;48.50;;;;;;4965824;28;20023;-89
2021/04/06 09:57:42;;;;;;;0.43;0.43;;;20.90;48.50;;;;;;4980755;28;20050;-88
2021/04/06 10:00:15;;;;;;;0.35;0.35;;;23.40;44.10;;;;;;4980152;28;20027;-89
2021/04/06 10:02:45;;;;;;;0.00;0.00;;;20.70;45.60;;;;;;4966517;28;20031;-90
2021/04/06 10:05:24;;;;;;;1.33;0.98;;;15.80;53.60;;;;;;4982627;28;20041;-92
2021/04/06 10:07:50;;;;;;;3.92;1.63;;;17.80;57.70;;;;;;4962356;28;20015;-92
2021/04/06 10:10:43;;;;;;;0.17;0.17;;;21.70;47.20;;;;;;4969484;28;20069;-90
2021/04/06 10:13:11;;;;;;;0.10;0.10;;;18.10;48.70;;;;;;4960940;28;20036;-91
2021/04/06 10:15:38;;;;;;;0.10;0.10;;;20.80;49.70;;;;;;4967944;28;20035;-91
2021/04/06 10:18:12;;;;;;;0.00;0.00;;;21.00;44.20;;;;;;4967411;28;20814;-91
2021/04/06 10:20:47;;;;;;;0.32;0.32;;;16.20;54.70;;;;;;4965094;28;20118;-90
2021/04/06 10:23:35;;;;;;;0.20;0.20;;;14.60;58.20;;;;;;4967661;28;20411;-90
2021/04/06 10:26:01;;;;;;;0.03;0.03;;;18.50;51.80;;;;;;4968789;28;20038;-89
2021/04/06 10:28:31;;;;;;;0.00;0.00;;;22.10;44.60;;;;;;4969094;28;20034;-91
2021/04/06 10:31:02;;;;;;;0.47;0.47;;;21.90;39.80;;;;;;4966844;28;20087;-91
2021/04/06 10:33:41;;;;;;;0.00;0.00;;;17.60;47.00;;;;;;4966818;28;20059;-90
2021/04/06 10:36:18;;;;;;;0.50;0.50;;;19.00;47.60;;;;;;4966959;28;20080;-90
2021/04/06 10:38:45;;;;;;;0.15;0.15;;;19.30;47.20;;;;;;4981542;28;20027;-90
2021/04/06 10:41:13;;;;;;;0.28;0.28;;;22.70;45.70;;;;;;4960897;28;20034;-91
2021/04/06 10:43:48;;;;;;;0.00;0.00;;;21.60;45.20;;;;;;4968206;28;20015;-92
2021/04/06 10:46:22;;;;;;;0.17;0.17;;;19.60;65.50;;;;;;4964692;28;20035;-90
2021/04/06 10:48:53;;;;;;;0.00;0.00;;;16.70;60.60;;;;;;4965177;28;20035;-88
2021/04/06 10:51:24;;;;;;;0.10;0.10;;;15.00;64.00;;;;;;4967279;28;20027;-91
2021/04/06 10:53:53;;;;;;;3.03;0.43;;;17.40;58.00;;;;;;4964744;28;20046;-89
2021/04/06 10:56:25;;;;;;;0.30;0.30;;;17.10;59.70;;;;;;4965752;28;20062;-90
2021/04/06 10:58:55;;;;;;;0.22;0.22;;;18.20;49.20;;;;;;4967463;28;20035;-90
2021/04/06 11:01:28;;;;;;;0.63;0.63;;;19.40;46.20;;;;;;4967963;28;20518;-90
2021/04/06 11:03:56;;;;;;;0.45;0.45;;;21.40;44.80;;;;;;4963263;28;20121;-92
2021/04/06 11:06:25;;;;;;;1.13;0.38;;;19.80;47.20;;;;;;4966470;28;20035;-87
2021/04/06 11:08:54;;;;;;;0.30;0.30;;;13.60;60.00;;;;;;4987520;28;20046;-88
2021/04/06 11:11:25;;;;;;;0.00;0.00;;;11.60;62.30;;;;;;4968836;28;20111;-90
2021/04/06 11:13:52;;;;;;;0.20;0.20;;;13.70;63.80;;;;;;4968361;28;20018;-89
2021/04/06 11:16:19;;;;;;;0.03;0.03;;;19.30;50.90;;;;;;4967370;28;20035;-89
2021/04/06 11:19:02;;;;;;;0.52;0.22;;;20.70;47.20;;;;;;4968191;28;20101;-89
2021/04/06 11:21:29;;;;;;;0.00;0.00;;;21.10;44.90;;;;;;4977530;28;20039;-88
2021/04/06 11:23:55;;;;;;;0.40;0.40;;;19.20;53.90;;;;;;4968845;28;20023;-88
2021/04/06 11:26:22;;;;;;;1.70;1.02;;;18.20;46.60;;;;;;4965176;28;20039;-88
2021/04/06 11:28:48;;;;;;;0.15;0.15;;;17.20;53.10;;;;;;4963786;28;20395;-89
2021/04/06 11:31:18;;;;;;;0.43;0.38;;;20.10;49.60;;;;;;4963346;28;20035;-89
2021/04/06 11:33:46;;;;;;;0.00;0.00;;;20.20;48.50;;;;;;4963854;28;20457;-89
2021/04/06 11:36:15;;;;;;;0.15;0.13;;;20.40;45.70;;;;;;4981748;28;21432;-88
2021/04/06 11:38:44;;;;;;;0.90;0.70;;;17.90;53.00;;;;;;4963278;28;20689;-88
2021/04/06 11:41:11;;;;;;;0.20;0.20;;;13.80;56.60;;;;;;4964645;28;20884;-89
2021/04/06 11:43:36;;;;;;;;;;;12.50;60.00;;;;;;4968231;28;20042;-90
2021/04/06 11:46:05;;;;;;;0.00;0.00;;;12.00;60.70;;;;;;4980457;28;19906;-90
2021/04/06 11:48:31;;;;;;;0.13;0.13;;;12.20;64.40;;;;;;4961804;28;20563;-88
2021/04/06 11:51:00;;;;;;;0.50;0.50;;;12.20;62.60;;;;;;4965841;28;20106;-88
2021/04/06 11:53:27;;;;;;;0.10;0.10;;;11.50;65.40;;;;;;4966165;28;20040;-86
2021/04/06 11:55:55;;;;;;;0.13;0.13;;;11.00;66.40;;;;;;4959778;28;20058;-89
2021/04/06 11:58:24;;;;;;;0.00;0.00;;;10.50;67.50;;;;;;4956773;28;20039;-89
2021/04/06 12:00:50;;;;;;;0.10;0.10;;;11.70;66.00;;;;;;4947369;28;20042;-91
2021/04/06 12:03:16;;;;;;;0.45;0.45;;;11.90;63.20;;;;;;4980842;28;20117;-89
2021/04/06 12:05:43;;;;;;;0.10;0.10;;;12.00;64.40;;;;;;4966647;28;20015;-90
2021/04/06 12:08:09;;;;;;;;;;;12.20;63.10;;;;;;4961409;28;20034;-88
2021/04/06 12:10:37;;;;;;;0.00;0.00;;;11.90;63.50;;;;;;4963849;28;19928;-89
2021/04/06 12:13:05;;;;;;;0.20;0.20;;;12.20;63.70;;;;;;4965388;28;20027;-91
2021/04/06 12:15:32;;;;;;;0.00;0.00;;;12.40;63.10;;;;;;4962073;28;20035;-89
2021/04/06 12:17:58;;;;;;;0.10;0.10;;;12.00;64.60;;;;;;4962803;28;20410;-90
2021/04/06 12:20:24;;;;;;;0.10;0.10;;;11.40;66.00;;;;;;4965509;28;20042;-89
2021/04/06 12:22:50;;;;;;;0.00;0.00;;;12.20;64.00;;;;;;4967699;28;20031;-90
2021/04/06 12:25:19;;;;;;;0.07;0.07;;;11.70;65.70;;;;;;4967202;28;20035;-89
2021/04/06 12:27:46;;;;;;;0.00;0.00;;;11.60;65.10;;;;;;4966377;28;20054;-90
2021/04/06 12:30:15;;;;;;;3.85;0.57;;;11.20;65.70;;;;;;4969660;28;20056;-91
2021/04/06 12:32:41;;;;;;;0.10;0.10;;;10.80;66.20;;;;;;4980013;28;20026;-92
2021/04/06 12:35:08;;;;;;;0.20;0.20;;;11.20;65.60;;;;;;4978571;28;20023;-89
2021/04/06 12:37:36;;;;;;;0.10;0.10;;;11.70;66.10;;;;;;4985639;28;20554;-90
2021/04/06 12:40:09;;;;;;;0.00;0.00;;;10.80;66.20;;;;;;4970400;28;20526;-90
2021/04/06 12:42:40;;;;;;;0.22;0.22;;;11.40;67.10;;;;;;4969840;28;20035;-90
2021/04/06 12:45:15;;;;;;;0.00;0.00;;;11.40;66.60;;;;;;4969772;28;20038;-90
2021/04/06 12:47:41;;;;;;;0.20;0.20;;;11.10;66.00;;;;;;4985375;28;20541;-90
2021/04/06 12:50:08;;;;;;;0.50;0.50;;;11.40;66.00;;;;;;4971629;28;20039;-88
2021/04/06 12:52:34;;;;;;;0.10;0.10;;;11.10;65.70;;;;;;4970916;28;20026;-88
2021/04/06 12:55:00;;;;;;;0.35;0.10;;;10.90;65.50;;;;;;4970532;28;20025;-87
2021/04/06 12:57:26;;;;;;;0.35;0.32;;;11.00;67.20;;;;;;4986359;28;20030;-87
2021/04/06 12:59:56;;;;;;;0.03;0.03;;;11.00;65.30;;;;;;4962164;28;20553;-88
2021/04/06 13:02:22;;;;;;;0.30;0.22;;;11.00;78.70;;;;;;4969842;28;20026;-91
2021/04/06 13:04:49;;;;;;;0.10;0.10;;;10.60;66.20;;;;;;4969576;28;20030;-89
2021/04/06 13:07:15;;;;;;;1.47;0.73;;;10.70;66.30;;;;;;4970316;28;20035;-88
2021/04/06 13:09:41;;;;;;;0.20;0.20;;;10.70;66.50;;;;;;4970638;28;20361;-92
2021/04/06 13:12:07;;;;;;;0.00;0.00;;;11.00;65.20;;;;;;4966572;28;20027;-87
2021/04/06 13:14:33;;;;;;;0.10;0.10;;;11.10;64.90;;;;;;4966110;28;20092;-89
2021/04/06 13:16:59;;;;;;;0.10;0.10;;;10.20;66.40;;;;;;4970365;28;20057;-86
2021/04/06 13:19:25;;;;;;;0.00;0.00;;;10.00;66.80;;;;;;4967554;28;20681;-88
2021/04/06 13:21:51;;;;;;;0.00;0.00;;;10.40;67.00;;;;;;4971578;28;20035;-91
2021/04/06 13:24:17;;;;;;;1.90;0.95;;;10.60;66.60;;;;;;4968732;28;20073;-89
2021/04/06 13:26:46;;;;;;;0.00;0.00;;;11.20;65.90;;;;;;4967046;28;20860;-89
2021/04/06 13:29:12;;;;;;;0.00;0.00;;;10.70;66.50;;;;;;4981580;28;20507;-88
2021/04/06 13:31:38;;;;;;;0.10;0.10;;;11.30;65.70;;;;;;4968136;28;20046;-89
2021/04/06 13:34:05;;;;;;;0.00;0.00;;;10.50;65.80;;;;;;4982343;28;20085;-90
2021/04/06 13:36:34;;;;;;;0.13;0.13;;;10.30;66.60;;;;;;4983153;28;20031;-87
2021/04/06 13:39:03;;;;;;;0.15;0.15;;;10.60;66.70;;;;;;4967046;28;20027;-89
2021/04/06 13:41:29;;;;;;;0.10;0.10;;;10.60;65.40;;;;;;4963743;28;20023;-88
2021/04/06 13:43:55;;;;;;;0.00;0.00;;;10.60;67.00;;;;;;4966959;28;20721;-87
2021/04/06 13:46:22;;;;;;;0.00;0.00;;;10.30;67.10;;;;;;4967765;28;20282;-89
2021/04/06 13:48:48;;;;;;;0.00;0.00;;;10.70;67.00;;;;;;4967324;28;20031;-89
2021/04/06 13:51:14;;;;;;;0.13;0.10;;;10.40;67.00;;;;;;4970022;28;20122;-88
2021/04/06 13:53:40;;;;;;;0.00;0.00;;;10.00;66.70;;;;;;4983910;28;20493;-89
2021/04/06 13:56:06;;;;;;;0.00;0.00;;;10.30;66.80;;;;;;4954727;28;20019;-92